createdAt,value
2018-06-13T00:02:13.669Z,4.27
2018-06-13T00:04:42.186Z,4.47
2018-06-13T00:07:10.748Z,4.23
2018-06-13T00:09:39.176Z,3.20
2018-06-13T00:12:08.078Z,3.27
2018-06-13T00:14:36.504Z,3.43
2018-06-13T00:17:05.074Z,3.33
2018-06-13T00:19:33.263Z,4.97
2018-06-13T00:22:01.711Z,5.03
2018-06-13T00:24:30.285Z,8.43
2018-06-13T00:26:58.835Z,8.40
2018-06-13T00:29:27.261Z,10.10
2018-06-13T00:31:55.673Z,8.33
2018-06-13T00:34:24.085Z,6.23
2018-06-13T00:36:53.208Z,7.27
2018-06-13T00:39:21.777Z,5.63
2018-06-13T00:41:50.257Z,3.47
2018-06-13T00:44:18.717Z,5.53
2018-06-13T00:46:47.305Z,4.57
2018-06-13T00:49:15.885Z,3.80
2018-06-13T00:51:44.304Z,4.00
2018-06-13T00:54:12.828Z,8.50
2018-06-13T00:56:41.280Z,5.37
2018-06-13T00:59:09.732Z,6.53
2018-06-13T01:01:38.128Z,6.87
2018-06-13T01:04:06.588Z,9.97
2018-06-13T01:06:35.469Z,5.47
2018-06-13T01:09:05.755Z,8.10
2018-06-13T01:11:34.769Z,7.10
2018-06-13T01:14:03.341Z,10.57
2018-06-13T01:16:31.931Z,5.97
2018-06-13T01:19:00.408Z,5.20
2018-06-13T01:21:28.907Z,6.63
2018-06-13T01:23:57.379Z,6.30
2018-06-13T01:26:25.799Z,5.63
2018-06-13T01:28:55.089Z,5.40
2018-06-13T01:31:23.480Z,5.00
2018-06-13T01:33:51.899Z,7.10
2018-06-13T01:36:28.477Z,6.87
2018-06-13T01:38:57.258Z,6.10
2018-06-13T01:41:25.840Z,4.73
2018-06-13T01:43:54.371Z,6.90
2018-06-13T01:46:22.782Z,10.53
2018-06-13T01:48:51.164Z,5.13
2018-06-13T01:51:19.684Z,6.33
2018-06-13T01:53:48.164Z,4.27
2018-06-13T01:56:16.559Z,5.50
2018-06-13T01:58:44.982Z,3.73
2018-06-13T02:01:13.488Z,6.73
2018-06-13T02:03:41.909Z,4.07
2018-06-13T02:06:10.021Z,4.10
2018-06-13T02:08:38.449Z,5.33
2018-06-13T02:11:06.938Z,7.27
2018-06-13T02:13:35.483Z,12.93
2018-06-13T02:16:10.557Z,5.30
2018-06-13T02:18:38.940Z,3.80
2018-06-13T02:21:07.356Z,4.60
2018-06-13T02:23:35.460Z,4.43
2018-06-13T02:26:03.946Z,3.57
2018-06-13T02:28:32.366Z,7.87
2018-06-13T02:31:00.795Z,6.90
2018-06-13T02:33:28.860Z,6.70
2018-06-13T02:35:57.481Z,7.87
2018-06-13T02:38:25.877Z,6.50
2018-06-13T02:40:54.283Z,7.67
2018-06-13T02:43:22.901Z,5.57
2018-06-13T02:45:51.424Z,5.87
2018-06-13T02:48:19.840Z,4.33
2018-06-13T02:50:48.223Z,6.40
2018-06-13T02:53:16.633Z,4.20
2018-06-13T02:55:45.062Z,4.37
2018-06-13T02:58:13.582Z,6.87
2018-06-13T03:00:41.998Z,4.97
2018-06-13T03:03:10.478Z,5.77
2018-06-13T03:05:39.308Z,4.20
2018-06-13T03:08:07.829Z,4.90
2018-06-13T03:10:36.384Z,3.47
2018-06-13T03:13:04.790Z,5.10
2018-06-13T03:15:33.181Z,6.30
2018-06-13T03:18:01.756Z,5.97
2018-06-13T03:20:30.326Z,5.10
2018-06-13T03:22:58.751Z,6.50
2018-06-13T03:25:27.195Z,8.87
2018-06-13T03:27:55.632Z,5.70
2018-06-13T03:30:24.208Z,4.97
2018-06-13T03:32:52.786Z,4.37
2018-06-13T03:35:21.186Z,6.93
2018-06-13T03:37:49.550Z,4.80
2018-06-13T03:40:18.019Z,7.30
2018-06-13T03:42:46.427Z,4.60
2018-06-13T03:45:14.893Z,5.00
2018-06-13T03:47:43.459Z,5.50
2018-06-13T03:50:11.917Z,5.27
2018-06-13T03:52:40.380Z,7.13
2018-06-13T03:55:08.838Z,4.33
2018-06-13T03:57:37.329Z,4.90
2018-06-13T04:00:05.921Z,5.70
2018-06-13T04:02:34.321Z,3.80
2018-06-13T04:05:02.724Z,4.80
2018-06-13T04:07:30.841Z,2.93
2018-06-13T04:09:59.251Z,4.97
2018-06-13T04:12:27.648Z,4.20
2018-06-13T04:14:56.256Z,2.73
2018-06-13T04:17:24.708Z,3.53
2018-06-13T04:19:53.161Z,2.23
2018-06-13T04:22:21.635Z,4.67
2018-06-13T04:24:50.103Z,6.70
2018-06-13T04:27:18.563Z,3.70
2018-06-13T04:29:47.039Z,4.10
2018-06-13T04:32:15.543Z,5.73
2018-06-13T04:34:44.073Z,4.93
2018-06-13T04:37:12.561Z,5.47
2018-06-13T04:39:40.970Z,5.20
2018-06-13T04:42:09.483Z,5.33
2018-06-13T04:44:37.947Z,5.20
2018-06-13T04:47:06.480Z,4.37
2018-06-13T04:49:34.593Z,5.50
2018-06-13T04:52:03.064Z,6.67
2018-06-13T04:54:31.465Z,6.40
2018-06-13T04:56:59.893Z,10.83
2018-06-13T04:59:28.031Z,5.33
2018-06-13T05:01:56.449Z,5.73
2018-06-13T05:04:24.886Z,8.03
2018-06-13T05:06:53.300Z,5.20
2018-06-13T05:09:21.854Z,7.40
2018-06-13T05:11:50.332Z,8.47
2018-06-13T05:14:18.886Z,6.70
2018-06-13T05:16:47.234Z,4.93
2018-06-13T05:19:15.730Z,5.67
2018-06-13T05:21:44.279Z,5.20
2018-06-13T05:24:12.764Z,8.43
2018-06-13T05:26:41.208Z,5.93
2018-06-13T05:29:09.702Z,7.60
2018-06-13T05:31:38.129Z,7.67
2018-06-13T05:34:06.707Z,5.70
2018-06-13T05:36:35.192Z,5.83
2018-06-13T05:39:04.607Z,8.67
2018-06-13T05:41:32.898Z,5.23
2018-06-13T05:44:01.323Z,9.30
2018-06-13T05:46:29.706Z,8.70
2018-06-13T05:48:57.857Z,8.80
2018-06-13T05:51:26.281Z,6.17
2018-06-13T05:53:54.601Z,7.53
2018-06-13T05:56:23.128Z,8.60
2018-06-13T05:58:51.593Z,9.90
2018-06-13T06:01:20.157Z,7.83
2018-06-13T06:03:48.633Z,7.23
2018-06-13T06:06:17.197Z,8.80
2018-06-13T06:08:45.583Z,6.13
2018-06-13T06:11:14.091Z,6.47
2018-06-13T06:13:42.520Z,7.37
2018-06-13T06:16:11.044Z,9.03
2018-06-13T06:18:39.496Z,6.30
2018-06-13T06:21:07.912Z,8.00
2018-06-13T06:23:36.389Z,7.13
2018-06-13T06:26:04.797Z,5.73
2018-06-13T06:28:33.331Z,8.87
2018-06-13T06:31:01.715Z,7.27
2018-06-13T06:33:30.158Z,7.60
2018-06-13T06:35:58.819Z,7.00
2018-06-13T06:38:27.541Z,9.27
2018-06-13T06:40:56.048Z,9.63
2018-06-13T06:43:24.847Z,8.27
2018-06-13T06:45:53.276Z,7.20
2018-06-13T06:48:21.832Z,8.43
2018-06-13T06:50:50.283Z,7.90
2018-06-13T06:53:18.764Z,8.07
2018-06-13T06:55:47.172Z,11.90
2018-06-13T06:58:15.628Z,7.90
2018-06-13T07:00:44.138Z,9.40
2018-06-13T07:03:12.805Z,9.60
2018-06-13T07:05:41.238Z,11.87
2018-06-13T07:08:09.655Z,7.23
2018-06-13T07:10:38.123Z,12.50
2018-06-13T07:13:06.827Z,10.13
2018-06-13T07:15:35.285Z,7.40
2018-06-13T07:18:03.874Z,11.23
2018-06-13T07:20:32.361Z,8.13
2018-06-13T07:23:00.774Z,8.07
2018-06-13T07:25:29.211Z,8.77
2018-06-13T07:27:57.666Z,7.77
2018-06-13T07:30:26.078Z,8.20
2018-06-13T07:32:54.486Z,9.90
2018-06-13T07:35:24.003Z,6.70
2018-06-13T07:37:52.379Z,8.57
2018-06-13T07:40:20.785Z,6.90
2018-06-13T07:42:49.237Z,8.40
2018-06-13T07:45:17.676Z,7.93
2018-06-13T07:47:46.250Z,8.47
2018-06-13T07:50:14.699Z,7.37
2018-06-13T07:52:43.358Z,10.27
2018-06-13T07:55:11.818Z,7.90
2018-06-13T07:57:40.238Z,6.50
2018-06-13T08:00:08.991Z,6.60
2018-06-13T08:02:37.512Z,7.40
2018-06-13T08:05:06.082Z,5.40
2018-06-13T08:07:34.513Z,7.13
2018-06-13T08:10:02.654Z,8.03
2018-06-13T08:12:31.065Z,4.43
2018-06-13T08:14:59.562Z,7.27
2018-06-13T08:17:28.155Z,5.30
2018-06-13T08:19:56.657Z,8.10
2018-06-13T08:22:25.105Z,12.13
2018-06-13T08:24:55.083Z,8.23
2018-06-13T08:27:23.617Z,7.53
2018-06-13T08:29:52.126Z,7.47
2018-06-13T08:32:20.697Z,6.43
2018-06-13T08:34:49.229Z,9.60
2018-06-13T08:37:17.847Z,9.60
2018-06-13T08:39:46.369Z,5.43
2018-06-13T08:42:14.942Z,5.87
2018-06-13T08:44:43.493Z,5.53
2018-06-13T08:47:12.052Z,5.63
2018-06-13T08:49:40.704Z,5.17
2018-06-13T08:52:09.290Z,4.37
2018-06-13T08:54:37.778Z,4.97
2018-06-13T08:57:06.280Z,3.80
2018-06-13T08:59:34.840Z,3.83
2018-06-13T09:02:03.417Z,3.90
2018-06-13T09:04:32.512Z,8.53
2018-06-13T09:07:01.071Z,3.60
2018-06-13T09:09:29.663Z,4.87
2018-06-13T09:11:58.179Z,4.07
2018-06-13T09:14:26.624Z,4.40
2018-06-13T09:16:55.729Z,4.77
2018-06-13T09:19:24.287Z,4.23
2018-06-13T09:21:52.805Z,4.30
2018-06-13T09:24:21.232Z,5.30
2018-06-13T09:26:49.785Z,4.17
2018-06-13T09:29:18.227Z,4.50
2018-06-13T09:31:46.663Z,4.70
2018-06-13T09:34:15.137Z,4.80
2018-06-13T09:36:43.590Z,5.23
2018-06-13T09:39:12.150Z,5.60
2018-06-13T09:42:02.513Z,5.17
2018-06-13T09:44:31.300Z,6.50
2018-06-13T09:47:06.900Z,6.20
2018-06-13T09:49:28.310Z,5.97
2018-06-13T09:51:56.754Z,7.30
2018-06-13T09:54:25.183Z,6.70
2018-06-13T09:56:53.571Z,7.20
2018-06-13T09:59:22.545Z,8.83
2018-06-13T10:01:56.363Z,10.40
2018-06-13T10:04:24.854Z,9.47
2018-06-13T10:06:53.326Z,8.07
2018-06-13T10:09:21.864Z,14.00
2018-06-13T10:11:50.410Z,13.50
2018-06-13T10:14:18.830Z,11.27
2018-06-13T10:16:46.970Z,16.77
2018-06-13T10:19:15.534Z,17.13
2018-06-13T10:21:43.957Z,11.80
2018-06-13T10:24:12.395Z,14.27
2018-06-13T10:26:40.869Z,11.33
2018-06-13T10:29:09.406Z,14.13
2018-06-13T10:31:37.980Z,16.67
2018-06-13T10:34:06.561Z,17.73
2018-06-13T10:36:35.208Z,17.00
2018-06-13T10:39:04.722Z,14.63
2018-06-13T10:41:33.124Z,16.97
2018-06-13T10:44:01.585Z,17.80
2018-06-13T10:46:30.085Z,20.77
2018-06-13T10:48:58.523Z,19.60
2018-06-13T10:51:26.989Z,19.43
2018-06-13T10:53:55.417Z,18.60
2018-06-13T10:56:23.911Z,16.60
2018-06-13T10:58:52.396Z,24.13
2018-06-13T11:01:20.933Z,16.70
2018-06-13T11:03:49.366Z,17.90
2018-06-13T11:06:17.801Z,15.40
2018-06-13T11:08:46.337Z,18.30
2018-06-13T11:11:14.830Z,18.47
2018-06-13T11:13:43.333Z,19.40
2018-06-13T11:16:11.945Z,14.97
2018-06-13T11:18:40.372Z,17.90
2018-06-13T11:21:09.029Z,20.73
2018-06-13T11:23:37.539Z,16.43
2018-06-13T11:26:06.143Z,22.33
2018-06-13T11:28:34.637Z,17.97
2018-06-13T11:31:03.124Z,15.93
2018-06-13T11:33:31.706Z,17.90
2018-06-13T11:36:00.189Z,20.40
2018-06-13T11:38:28.681Z,22.47
2018-06-13T11:40:57.327Z,15.07
2018-06-13T11:43:25.858Z,15.30
2018-06-13T11:45:54.788Z,14.90
2018-06-13T11:48:23.299Z,15.07
2018-06-13T11:50:51.748Z,13.37
2018-06-13T11:53:20.313Z,15.47
2018-06-13T11:55:48.861Z,15.63
2018-06-13T11:58:17.385Z,15.33
2018-06-13T12:00:45.883Z,18.07
2018-06-13T12:03:14.348Z,22.20
2018-06-13T12:05:42.840Z,20.53
2018-06-13T12:08:11.289Z,21.00
2018-06-13T12:10:39.731Z,22.70
2018-06-13T12:13:08.186Z,21.90
2018-06-13T12:15:36.689Z,27.30
2018-06-13T12:18:05.212Z,18.47
2018-06-13T12:20:33.714Z,17.07
2018-06-13T12:23:02.201Z,15.93
2018-06-13T12:25:30.723Z,16.17
2018-06-13T12:27:59.193Z,19.57
2018-06-13T12:30:27.666Z,14.70
2018-06-13T12:32:56.166Z,16.50
2018-06-13T12:35:24.652Z,21.83
2018-06-13T12:37:53.155Z,21.60
2018-06-13T12:40:21.739Z,22.47
2018-06-13T12:42:50.224Z,23.53
2018-06-13T12:45:18.755Z,23.37
2018-06-13T12:47:47.275Z,20.67
2018-06-13T12:50:15.893Z,22.20
2018-06-13T12:52:44.433Z,25.70
2018-06-13T12:55:12.953Z,25.70
2018-06-13T12:57:41.448Z,25.03
2018-06-13T13:00:09.993Z,24.50
2018-06-13T13:02:38.518Z,26.63
2018-06-13T13:05:07.034Z,24.87
2018-06-13T13:07:35.697Z,23.03
2018-06-13T13:10:04.737Z,22.37
2018-06-13T13:12:33.340Z,19.10
2018-06-13T13:15:01.816Z,24.07
2018-06-13T13:17:31.316Z,18.07
2018-06-13T13:19:59.814Z,15.50
2018-06-13T13:22:28.962Z,12.57
2018-06-13T13:24:57.839Z,11.70
2018-06-13T13:27:26.555Z,10.90
2018-06-13T13:29:55.135Z,10.87
2018-06-13T13:32:23.673Z,11.13
2018-06-13T13:34:53.024Z,17.17
2018-06-13T13:37:22.065Z,13.10
2018-06-13T13:39:50.703Z,10.93
2018-06-13T13:42:19.305Z,14.40
2018-06-13T13:44:48.405Z,16.53
2018-06-13T13:47:16.871Z,17.57
2018-06-13T13:49:45.315Z,16.83
2018-06-13T13:52:13.833Z,14.53
2018-06-13T13:54:42.344Z,15.50
2018-06-13T13:57:11.620Z,14.70
2018-06-13T13:59:40.113Z,14.10
2018-06-13T14:02:08.614Z,15.13
2018-06-13T14:04:37.220Z,16.67
2018-06-13T14:07:06.895Z,15.20
2018-06-13T14:09:35.509Z,16.40
2018-06-13T14:12:04.071Z,15.97
2018-06-13T14:14:32.709Z,16.10
2018-06-13T14:17:01.202Z,23.50
2018-06-13T14:19:29.704Z,18.90
2018-06-13T14:24:20.595Z,21.93
2018-06-13T14:26:49.118Z,26.80
2018-06-13T14:29:18.154Z,21.93
2018-06-13T14:31:46.735Z,31.00
2018-06-13T14:34:15.427Z,21.10
2018-06-13T14:36:44.055Z,24.60
2018-06-13T14:39:12.799Z,23.60
2018-06-13T14:41:42.245Z,22.57
2018-06-13T14:44:10.716Z,24.57
2018-06-13T14:46:38.856Z,27.17
2018-06-13T14:49:07.405Z,24.90
2018-06-13T14:51:36.100Z,22.77
2018-06-13T14:54:04.688Z,22.30
2018-06-13T14:56:33.648Z,24.50
2018-06-13T14:59:02.453Z,24.70
2018-06-13T15:01:31.112Z,32.00
2018-06-13T15:03:59.688Z,33.77
2018-06-13T15:06:28.335Z,30.13
2018-06-13T15:08:57.177Z,29.87
2018-06-13T15:11:25.901Z,34.30
2018-06-13T15:13:54.519Z,32.90
2018-06-13T15:16:23.090Z,37.60
2018-06-13T15:18:51.674Z,35.57
2018-06-13T15:21:21.059Z,34.67
2018-06-13T15:23:49.573Z,34.97
2018-06-13T15:26:18.386Z,32.03
2018-06-13T15:28:46.889Z,40.07
2018-06-13T15:31:15.750Z,27.30
2018-06-13T15:33:44.354Z,32.10
2018-06-13T15:36:13.099Z,34.50
2018-06-13T15:38:41.673Z,49.40
2018-06-13T15:41:10.555Z,37.73
2018-06-13T15:43:38.830Z,37.10
2018-06-13T15:46:07.581Z,37.10
2018-06-13T15:48:36.652Z,39.30
2018-06-13T15:51:05.180Z,55.47
2018-06-13T15:53:33.863Z,45.83
2018-06-13T15:56:02.363Z,37.70
2018-06-13T15:58:31.029Z,30.63
2018-06-13T16:00:59.611Z,27.10
2018-06-13T16:03:28.218Z,26.10
2018-06-13T16:05:57.333Z,23.20
2018-06-13T16:08:26.150Z,28.17
2018-06-13T16:10:55.022Z,22.90
2018-06-13T16:13:23.633Z,22.60
2018-06-13T16:15:52.127Z,24.37
2018-06-13T16:18:20.369Z,23.70
2018-06-13T16:20:49.140Z,25.90
2018-06-13T16:23:17.690Z,27.20
2018-06-13T16:25:45.904Z,20.07
2018-06-13T16:28:14.695Z,23.10
2018-06-13T16:30:43.216Z,22.67
2018-06-13T16:33:11.938Z,23.63
2018-06-13T16:35:41.281Z,27.03
2018-06-13T16:38:09.926Z,29.00
2018-06-13T16:40:38.586Z,28.97
2018-06-13T16:43:07.213Z,31.97
2018-06-13T16:45:35.883Z,29.43
2018-06-13T16:48:04.590Z,26.53
2018-06-13T16:50:44.484Z,31.23
2018-06-13T16:54:20.805Z,31.23
2018-06-13T16:56:49.503Z,31.13
2018-06-13T16:59:18.136Z,30.07
2018-06-13T17:01:46.870Z,30.77
2018-06-13T17:04:15.594Z,36.67
2018-06-13T17:06:44.330Z,33.97
2018-06-13T17:09:12.725Z,27.03
2018-06-13T17:11:42.179Z,34.97
2018-06-13T17:14:11.047Z,35.07
2018-06-13T17:16:39.731Z,29.73
2018-06-13T17:19:08.431Z,24.97
2018-06-13T17:21:37.207Z,25.97
2018-06-13T17:24:06.248Z,26.77
2018-06-13T17:26:35.006Z,27.70
2018-06-13T17:29:03.613Z,32.60
2018-06-13T17:31:32.179Z,28.80
2018-06-13T17:34:00.733Z,30.17
2018-06-13T17:36:29.396Z,31.13
2018-06-13T17:38:58.150Z,28.43
2018-06-13T17:41:27.289Z,27.50
2018-06-13T17:43:56.146Z,29.00
2018-06-13T17:46:24.961Z,32.80
2018-06-13T17:48:54.036Z,29.13
2018-06-13T17:51:23.778Z,31.80
2018-06-13T17:53:53.462Z,28.57
2018-06-13T17:56:22.342Z,31.93
2018-06-13T17:58:51.256Z,32.30
2018-06-13T18:01:20.097Z,29.33
2018-06-13T18:03:49.164Z,29.87
2018-06-13T18:06:18.833Z,25.63
2018-06-13T18:08:47.879Z,33.67
2018-06-13T18:11:18.639Z,28.47
2018-06-13T18:13:47.212Z,26.40
2018-06-13T18:16:16.009Z,22.77
2018-06-13T18:18:44.879Z,28.27
2018-06-13T18:21:14.470Z,22.10
2018-06-13T18:23:43.276Z,29.13
2018-06-13T18:26:13.180Z,25.60
2018-06-13T18:28:42.224Z,31.20
2018-06-13T18:31:12.692Z,30.93
2018-06-13T18:33:42.158Z,28.80
2018-06-13T18:36:11.450Z,26.13
2018-06-13T18:38:40.606Z,25.93
2018-06-13T18:41:09.635Z,30.67
2018-06-13T18:43:39.510Z,32.30
2018-06-13T18:46:08.136Z,30.07
2018-06-13T18:48:38.440Z,27.10
2018-06-13T18:51:07.819Z,28.00
2018-06-13T18:53:37.423Z,26.87
2018-06-13T18:56:07.527Z,30.97
2018-06-13T18:58:36.740Z,32.53
2018-06-13T19:01:05.982Z,32.57
2018-06-13T19:03:34.746Z,37.93
2018-06-13T19:06:03.813Z,32.97
2018-06-13T19:08:32.881Z,31.77
2018-06-13T19:11:02.419Z,27.60
2018-06-13T19:13:31.647Z,34.60
2018-06-13T19:16:00.954Z,25.77
2018-06-13T19:18:30.385Z,26.80
2018-06-13T19:21:01.276Z,28.40
2018-06-13T19:23:31.398Z,28.70
2018-06-13T19:26:01.386Z,35.47
2018-06-13T19:28:31.187Z,26.23
2018-06-13T19:31:01.564Z,26.90
2018-06-13T19:33:31.869Z,24.83
2018-06-13T19:36:01.298Z,27.00
2018-06-13T19:38:30.760Z,27.20
2018-06-13T19:41:00.727Z,28.10
2018-06-13T19:43:35.363Z,27.67
2018-06-13T19:46:04.966Z,28.03
2018-06-13T19:48:39.116Z,24.60
2018-06-13T19:51:08.266Z,33.77
2018-06-13T19:53:42.945Z,30.53
2018-06-13T19:56:13.318Z,30.40
2018-06-13T19:58:42.735Z,29.43
2018-06-13T20:01:12.237Z,27.43
2018-06-13T20:03:46.459Z,27.33
2018-06-13T20:06:15.113Z,23.27
2018-06-13T20:08:44.115Z,30.27
2018-06-13T20:11:12.912Z,23.03
2018-06-13T20:13:47.930Z,28.50
2018-06-13T20:16:31.761Z,30.07
2018-06-13T20:19:06.133Z,26.60
2018-06-13T20:21:35.251Z,27.70
2018-06-13T20:24:04.185Z,25.83
2018-06-13T20:26:39.155Z,21.93
2018-06-13T20:29:13.316Z,27.37
2018-06-13T20:31:44.408Z,24.00
2018-06-13T20:34:13.240Z,29.90
2018-06-13T20:36:42.016Z,24.97
2018-06-13T20:39:11.987Z,21.93
2018-06-13T20:41:41.364Z,23.97
2018-06-13T20:44:11.519Z,25.77
2018-06-13T20:46:40.947Z,28.53
2018-06-13T20:49:09.799Z,26.13
2018-06-13T20:51:38.542Z,28.97
2018-06-13T20:54:08.049Z,29.37
2018-06-13T20:56:36.637Z,24.57
2018-06-13T20:59:05.621Z,31.50
2018-06-13T21:01:34.078Z,26.57
2018-06-13T21:04:02.618Z,20.97
2018-06-13T21:06:31.396Z,23.97
2018-06-13T21:08:59.957Z,27.67
2018-06-13T21:11:29.386Z,24.00
2018-06-13T21:13:57.931Z,22.93
2018-06-13T21:16:26.983Z,27.37
2018-06-13T21:18:55.462Z,23.87
2018-06-13T21:21:24.050Z,27.80
2018-06-13T21:23:52.576Z,28.13
2018-06-13T21:26:21.185Z,23.87
2018-06-13T21:28:49.809Z,22.83
2018-06-13T21:31:18.420Z,25.33
2018-06-13T21:33:46.993Z,22.03
2018-06-13T21:36:15.420Z,25.07
2018-06-13T21:38:44.023Z,28.37
2018-06-13T21:41:12.539Z,25.53
2018-06-13T21:43:42.046Z,23.10
2018-06-13T21:46:10.504Z,22.00
2018-06-13T21:48:39.024Z,23.57
2018-06-13T21:51:07.597Z,25.10
2018-06-13T21:53:35.776Z,25.37
2018-06-13T21:56:04.278Z,25.67
2018-06-13T21:58:32.740Z,25.90
2018-06-13T22:01:01.354Z,30.70
2018-06-13T22:03:29.517Z,24.87
2018-06-13T22:05:57.648Z,26.17
2018-06-13T22:08:26.086Z,31.97
2018-06-13T22:10:58.011Z,26.40
2018-06-13T22:13:26.642Z,29.17
2018-06-13T22:15:55.201Z,31.33
2018-06-13T22:18:23.386Z,26.60
2018-06-13T22:20:51.899Z,25.20
2018-06-13T22:23:20.481Z,27.60
2018-06-13T22:25:49.077Z,23.50
2018-06-13T22:28:17.714Z,23.90
2018-06-13T22:30:46.152Z,31.00
2018-06-13T22:33:14.614Z,30.53
2018-06-13T22:35:43.039Z,31.40
2018-06-13T22:38:11.521Z,25.93
2018-06-13T22:40:40.058Z,26.87
2018-06-13T22:43:08.580Z,28.10
2018-06-13T22:45:37.079Z,26.20
2018-06-13T22:48:05.714Z,26.17
2018-06-13T22:50:33.895Z,22.90
2018-06-13T22:53:02.333Z,32.30
2018-06-13T22:55:30.799Z,31.90
2018-06-13T22:57:59.217Z,22.63
2018-06-13T23:00:33.472Z,26.13
2018-06-13T23:03:02.550Z,25.00
2018-06-13T23:05:31.019Z,24.60
2018-06-13T23:07:59.472Z,27.60
2018-06-13T23:10:28.127Z,26.07
2018-06-13T23:12:56.559Z,25.93
2018-06-13T23:15:25.233Z,25.80
2018-06-13T23:17:53.796Z,23.40
2018-06-13T23:20:22.265Z,26.40
2018-06-13T23:22:52.166Z,21.27
2018-06-13T23:25:20.567Z,22.20
2018-06-13T23:27:49.008Z,22.57
2018-06-13T23:30:17.512Z,30.77
2018-06-13T23:32:46.020Z,26.00
2018-06-13T23:35:14.448Z,21.83
2018-06-13T23:37:43.858Z,31.93
2018-06-13T23:40:12.452Z,21.47
2018-06-13T23:42:41.042Z,25.83
2018-06-13T23:45:09.513Z,25.80
2018-06-13T23:47:38.044Z,28.17
2018-06-13T23:50:06.563Z,25.90
2018-06-13T23:52:35.044Z,26.70
2018-06-13T23:55:03.669Z,33.03
2018-06-13T23:57:32.248Z,23.50
